CheckWX is a tool to help pilots better visualize weather data.  It is not intended as a substitute for an official pre-flight weather briefing.

06:14:11 UTC

KISW METAR
Alexander Field South Wood County Airport
Wisconsin Rapids, Wisconsin, USA
Current

20 mins ago

KISW 120554Z AUTO 02006KT 10SM CLR 20/13 A2988 RMK AO2 SLP111 T02000133 10267 20200 402940156 53004
Observed
Jul-12 @ 05:54 UTC
Wind
  • 020° at 6 KTS
Visibility
10 SM
Flight Rules
VFR
Cloud Levels
  • Clear skies
Dewpoint
13°C / 55°F
Humidity
64%
Altimeter
29.88" Hg
Pressure
1011.82 hPa
Previous

1 hour ago

KISW 120454Z AUTO 01004KT 10SM CLR 21/14 A2987 RMK AO2 SLP108 T02110144
Observed
Jul-12 @ 04:54 UTC
Wind
  • 010° at 4 KTS
Visibility
10 SM
Flight Rules
VFR
Cloud Levels
  • Clear skies
Temperature
21°C / 70°F
Dewpoint
14°C / 57°F
Humidity
64%
Altimeter
29.87" Hg
Pressure
1011.52 hPa
Previous

2 hours ago

KISW 120354Z AUTO 01005KT 10SM CLR 22/16 A2987 RMK AO2 SLP108 T02220156
Observed
Jul-12 @ 03:54 UTC
Wind
  • 010° at 5 KTS
Visibility
10 SM
Flight Rules
VFR
Cloud Levels
  • Clear skies
Temperature
22°C / 72°F
Dewpoint
16°C / 61°F
Humidity
69%
Altimeter
29.87" Hg
Pressure
1011.52 hPa